sensor_id;sensor_type;location;lat;lon;timestamp;P1;durP1;ratioP1;P2;durP2;ratioP2
82727;SDS011;72459;50.110;8.750;2023-11-19T00:00:49;6.68;;;4.45;;
82727;SDS011;72459;50.110;8.750;2023-11-19T00:03:16;7.63;;;4.20;;
82727;SDS011;72459;50.110;8.750;2023-11-19T00:05:42;8.48;;;4.55;;
82727;SDS011;72459;50.110;8.750;2023-11-19T00:08:09;8.25;;;3.92;;
82727;SDS011;72459;50.110;8.750;2023-11-19T00:10:35;5.10;;;3.50;;
82727;SDS011;72459;50.110;8.750;2023-11-19T00:13:00;7.40;;;4.30;;
82727;SDS011;72459;50.110;8.750;2023-11-19T00:15:27;7.05;;;4.38;;
82727;SDS011;72459;50.110;8.750;2023-11-19T00:17:53;5.47;;;4.15;;
82727;SDS011;72459;50.110;8.750;2023-11-19T00:20:19;5.13;;;3.75;;
82727;SDS011;72459;50.110;8.750;2023-11-19T00:22:48;5.72;;;4.07;;
82727;SDS011;72459;50.110;8.750;2023-11-19T00:25:16;6.35;;;4.57;;
82727;SDS011;72459;50.110;8.750;2023-11-19T00:27:45;5.38;;;3.80;;
82727;SDS011;72459;50.110;8.750;2023-11-19T00:30:10;6.80;;;4.60;;
82727;SDS011;72459;50.110;8.750;2023-11-19T00:32:36;6.88;;;4.10;;
82727;SDS011;72459;50.110;8.750;2023-11-19T00:35:06;6.38;;;4.10;;
82727;SDS011;72459;50.110;8.750;2023-11-19T00:37:32;6.40;;;3.83;;
82727;SDS011;72459;50.110;8.750;2023-11-19T00:39:59;6.40;;;4.43;;
82727;SDS011;72459;50.110;8.750;2023-11-19T00:42:28;5.85;;;4.50;;
82727;SDS011;72459;50.110;8.750;2023-11-19T00:44:54;7.93;;;4.50;;
82727;SDS011;72459;50.110;8.750;2023-11-19T00:47:20;7.30;;;4.75;;
82727;SDS011;72459;50.110;8.750;2023-11-19T00:49:48;6.43;;;4.28;;
82727;SDS011;72459;50.110;8.750;2023-11-19T00:52:14;7.47;;;4.78;;
82727;SDS011;72459;50.110;8.750;2023-11-19T00:54:42;7.85;;;4.45;;
82727;SDS011;72459;50.110;8.750;2023-11-19T00:57:07;7.38;;;5.18;;
82727;SDS011;72459;50.110;8.750;2023-11-19T00:59:33;7.10;;;4.63;;
82727;SDS011;72459;50.110;8.750;2023-11-19T01:01:58;7.47;;;4.47;;
82727;SDS011;72459;50.110;8.750;2023-11-19T01:04:33;6.72;;;5.00;;
82727;SDS011;72459;50.110;8.750;2023-11-19T01:07:01;7.18;;;4.47;;
82727;SDS011;72459;50.110;8.750;2023-11-19T01:09:29;7.53;;;4.13;;
82727;SDS011;72459;50.110;8.750;2023-11-19T01:11:57;6.30;;;4.70;;
82727;SDS011;72459;50.110;8.750;2023-11-19T01:14:23;6.97;;;4.30;;
82727;SDS011;72459;50.110;8.750;2023-11-19T01:16:48;6.60;;;4.10;;
82727;SDS011;72459;50.110;8.750;2023-11-19T01:19:14;8.85;;;4.10;;
82727;SDS011;72459;50.110;8.750;2023-11-19T01:21:39;7.77;;;4.43;;
82727;SDS011;72459;50.110;8.750;2023-11-19T01:24:05;6.35;;;4.45;;
82727;SDS011;72459;50.110;8.750;2023-11-19T01:26:34;5.50;;;3.65;;
82727;SDS011;72459;50.110;8.750;2023-11-19T01:29:00;6.97;;;4.55;;
82727;SDS011;72459;50.110;8.750;2023-11-19T01:31:26;6.38;;;4.40;;
82727;SDS011;72459;50.110;8.750;2023-11-19T01:33:51;7.95;;;4.50;;
82727;SDS011;72459;50.110;8.750;2023-11-19T01:36:17;7.35;;;3.88;;
82727;SDS011;72459;50.110;8.750;2023-11-19T01:38:43;6.35;;;4.32;;
82727;SDS011;72459;50.110;8.750;2023-11-19T01:41:09;7.25;;;4.38;;
82727;SDS011;72459;50.110;8.750;2023-11-19T01:43:35;5.90;;;4.10;;
82727;SDS011;72459;50.110;8.750;2023-11-19T01:46:02;5.13;;;3.47;;
82727;SDS011;72459;50.110;8.750;2023-11-19T01:48:30;6.70;;;4.30;;
82727;SDS011;72459;50.110;8.750;2023-11-19T01:50:58;6.65;;;4.00;;
82727;SDS011;72459;50.110;8.750;2023-11-19T01:53:23;5.70;;;3.50;;
82727;SDS011;72459;50.110;8.750;2023-11-19T01:55:50;6.07;;;3.92;;
82727;SDS011;72459;50.110;8.750;2023-11-19T01:58:15;5.80;;;4.05;;
82727;SDS011;72459;50.110;8.750;2023-11-19T02:00:42;5.18;;;3.08;;
82727;SDS011;72459;50.110;8.750;2023-11-19T02:03:09;4.72;;;3.42;;
82727;SDS011;72459;50.110;8.750;2023-11-19T02:05:34;6.53;;;3.80;;
82727;SDS011;72459;50.110;8.750;2023-11-19T02:08:00;4.78;;;3.40;;
82727;SDS011;72459;50.110;8.750;2023-11-19T02:10:26;5.78;;;3.67;;
82727;SDS011;72459;50.110;8.750;2023-11-19T02:12:52;5.13;;;3.38;;
82727;SDS011;72459;50.110;8.750;2023-11-19T02:15:17;5.00;;;3.50;;
82727;SDS011;72459;50.110;8.750;2023-11-19T02:17:50;4.75;;;3.22;;
82727;SDS011;72459;50.110;8.750;2023-11-19T02:20:16;4.93;;;3.10;;
82727;SDS011;72459;50.110;8.750;2023-11-19T02:22:44;4.93;;;2.97;;
82727;SDS011;72459;50.110;8.750;2023-11-19T02:25:13;4.50;;;2.92;;
82727;SDS011;72459;50.110;8.750;2023-11-19T02:30:22;5.75;;;3.17;;
82727;SDS011;72459;50.110;8.750;2023-11-19T02:33:00;4.85;;;2.88;;
82727;SDS011;72459;50.110;8.750;2023-11-19T02:35:31;4.18;;;2.88;;
82727;SDS011;72459;50.110;8.750;2023-11-19T02:37:57;4.50;;;2.67;;
82727;SDS011;72459;50.110;8.750;2023-11-19T02:40:27;3.33;;;2.90;;
82727;SDS011;72459;50.110;8.750;2023-11-19T02:42:53;5.20;;;2.70;;
82727;SDS011;72459;50.110;8.750;2023-11-19T02:45:20;5.20;;;2.67;;
82727;SDS011;72459;50.110;8.750;2023-11-19T02:47:47;3.85;;;2.90;;
82727;SDS011;72459;50.110;8.750;2023-11-19T02:50:12;4.20;;;2.95;;
82727;SDS011;72459;50.110;8.750;2023-11-19T02:52:41;4.88;;;2.30;;
82727;SDS011;72459;50.110;8.750;2023-11-19T02:55:08;3.95;;;2.78;;
82727;SDS011;72459;50.110;8.750;2023-11-19T02:57:43;3.33;;;2.30;;
82727;SDS011;72459;50.110;8.750;2023-11-19T03:00:17;4.05;;;2.40;;
82727;SDS011;72459;50.110;8.750;2023-11-19T03:02:43;3.95;;;2.33;;
82727;SDS011;72459;50.110;8.750;2023-11-19T03:05:29;4.05;;;2.20;;
82727;SDS011;72459;50.110;8.750;2023-11-19T03:07:55;4.60;;;2.30;;
82727;SDS011;72459;50.110;8.750;2023-11-19T03:10:21;4.00;;;2.60;;
82727;SDS011;72459;50.110;8.750;2023-11-19T03:12:47;3.67;;;2.50;;
82727;SDS011;72459;50.110;8.750;2023-11-19T03:15:12;3.23;;;2.20;;
82727;SDS011;72459;50.110;8.750;2023-11-19T03:17:39;2.88;;;2.22;;
82727;SDS011;72459;50.110;8.750;2023-11-19T03:20:08;2.75;;;2.28;;
82727;SDS011;72459;50.110;8.750;2023-11-19T03:22:35;3.40;;;2.25;;
82727;SDS011;72459;50.110;8.750;2023-11-19T03:25:02;3.33;;;2.10;;
82727;SDS011;72459;50.110;8.750;2023-11-19T03:27:28;2.95;;;2.05;;
82727;SDS011;72459;50.110;8.750;2023-11-19T03:29:53;2.97;;;2.15;;
82727;SDS011;72459;50.110;8.750;2023-11-19T03:32:19;3.47;;;2.78;;
82727;SDS011;72459;50.110;8.750;2023-11-19T03:34:45;4.15;;;2.47;;
82727;SDS011;72459;50.110;8.750;2023-11-19T03:37:10;2.95;;;2.15;;
82727;SDS011;72459;50.110;8.750;2023-11-19T03:39:35;3.80;;;2.33;;
82727;SDS011;72459;50.110;8.750;2023-11-19T03:42:01;2.90;;;2.22;;
82727;SDS011;72459;50.110;8.750;2023-11-19T03:44:27;2.60;;;1.97;;
82727;SDS011;72459;50.110;8.750;2023-11-19T03:46:55;2.85;;;2.13;;
82727;SDS011;72459;50.110;8.750;2023-11-19T03:49:20;2.75;;;2.17;;
82727;SDS011;72459;50.110;8.750;2023-11-19T03:51:46;3.42;;;2.60;;
82727;SDS011;72459;50.110;8.750;2023-11-19T03:54:12;3.92;;;2.63;;
82727;SDS011;72459;50.110;8.750;2023-11-19T03:56:37;3.72;;;2.50;;
82727;SDS011;72459;50.110;8.750;2023-11-19T03:59:03;2.70;;;2.20;;
82727;SDS011;72459;50.110;8.750;2023-11-19T04:01:32;2.53;;;2.33;;
82727;SDS011;72459;50.110;8.750;2023-11-19T04:03:57;3.90;;;2.55;;
82727;SDS011;72459;50.110;8.750;2023-11-19T04:06:22;4.35;;;2.47;;
82727;SDS011;72459;50.110;8.750;2023-11-19T04:08:48;3.05;;;2.40;;
82727;SDS011;72459;50.110;8.750;2023-11-19T04:11:14;2.80;;;2.22;;
82727;SDS011;72459;50.110;8.750;2023-11-19T04:13:40;3.88;;;2.15;;
82727;SDS011;72459;50.110;8.750;2023-11-19T04:16:05;4.25;;;2.53;;
82727;SDS011;72459;50.110;8.750;2023-11-19T04:18:31;2.78;;;2.20;;
82727;SDS011;72459;50.110;8.750;2023-11-19T04:20:57;2.78;;;2.35;;
82727;SDS011;72459;50.110;8.750;2023-11-19T04:23:22;3.30;;;2.40;;
82727;SDS011;72459;50.110;8.750;2023-11-19T04:25:49;3.00;;;2.23;;
82727;SDS011;72459;50.110;8.750;2023-11-19T04:28:14;3.15;;;2.33;;
82727;SDS011;72459;50.110;8.750;2023-11-19T04:30:40;2.90;;;2.60;;
82727;SDS011;72459;50.110;8.750;2023-11-19T04:33:05;3.40;;;2.10;;
82727;SDS011;72459;50.110;8.750;2023-11-19T04:35:30;2.92;;;2.10;;
82727;SDS011;72459;50.110;8.750;2023-11-19T04:37:56;4.47;;;2.28;;
82727;SDS011;72459;50.110;8.750;2023-11-19T04:40:22;2.65;;;2.30;;
82727;SDS011;72459;50.110;8.750;2023-11-19T04:42:48;2.60;;;2.10;;
82727;SDS011;72459;50.110;8.750;2023-11-19T04:45:14;3.92;;;2.15;;
82727;SDS011;72459;50.110;8.750;2023-11-19T04:47:41;3.90;;;2.10;;
82727;SDS011;72459;50.110;8.750;2023-11-19T04:50:09;2.58;;;1.88;;
82727;SDS011;72459;50.110;8.750;2023-11-19T04:52:39;3.10;;;2.05;;
82727;SDS011;72459;50.110;8.750;2023-11-19T04:55:10;2.25;;;1.73;;
82727;SDS011;72459;50.110;8.750;2023-11-19T04:57:37;2.53;;;2.03;;
82727;SDS011;72459;50.110;8.750;2023-11-19T05:00:03;2.22;;;2.03;;
82727;SDS011;72459;50.110;8.750;2023-11-19T05:02:32;4.03;;;2.20;;
82727;SDS011;72459;50.110;8.750;2023-11-19T05:04:59;2.55;;;2.13;;
82727;SDS011;72459;50.110;8.750;2023-11-19T05:07:25;3.25;;;2.13;;
82727;SDS011;72459;50.110;8.750;2023-11-19T05:09:51;3.05;;;2.05;;
82727;SDS011;72459;50.110;8.750;2023-11-19T05:12:17;2.80;;;2.20;;
82727;SDS011;72459;50.110;8.750;2023-11-19T05:14:42;3.17;;;2.55;;
82727;SDS011;72459;50.110;8.750;2023-11-19T05:17:14;2.95;;;2.05;;
82727;SDS011;72459;50.110;8.750;2023-11-19T05:19:39;3.28;;;2.28;;
82727;SDS011;72459;50.110;8.750;2023-11-19T05:22:05;2.75;;;1.75;;
82727;SDS011;72459;50.110;8.750;2023-11-19T05:24:31;2.70;;;1.90;;
82727;SDS011;72459;50.110;8.750;2023-11-19T05:26:57;2.15;;;1.73;;
82727;SDS011;72459;50.110;8.750;2023-11-19T05:29:23;2.50;;;1.90;;
82727;SDS011;72459;50.110;8.750;2023-11-19T05:31:50;2.63;;;1.85;;
82727;SDS011;72459;50.110;8.750;2023-11-19T05:34:15;3.60;;;2.23;;
82727;SDS011;72459;50.110;8.750;2023-11-19T05:36:41;2.33;;;1.92;;
82727;SDS011;72459;50.110;8.750;2023-11-19T05:39:07;2.45;;;1.80;;
82727;SDS011;72459;50.110;8.750;2023-11-19T05:41:32;2.20;;;1.77;;
82727;SDS011;72459;50.110;8.750;2023-11-19T05:43:57;2.60;;;2.10;;
82727;SDS011;72459;50.110;8.750;2023-11-19T05:46:23;3.60;;;2.30;;
82727;SDS011;72459;50.110;8.750;2023-11-19T05:48:50;2.75;;;2.42;;
82727;SDS011;72459;50.110;8.750;2023-11-19T05:51:16;3.08;;;2.40;;
82727;SDS011;72459;50.110;8.750;2023-11-19T05:53:41;3.20;;;2.30;;
82727;SDS011;72459;50.110;8.750;2023-11-19T05:56:08;3.50;;;2.75;;
82727;SDS011;72459;50.110;8.750;2023-11-19T05:58:34;4.00;;;3.00;;
82727;SDS011;72459;50.110;8.750;2023-11-19T06:01:01;4.32;;;3.10;;
82727;SDS011;72459;50.110;8.750;2023-11-19T06:03:28;4.13;;;3.55;;
82727;SDS011;72459;50.110;8.750;2023-11-19T06:05:55;4.80;;;3.72;;
82727;SDS011;72459;50.110;8.750;2023-11-19T06:08:20;3.65;;;3.25;;
82727;SDS011;72459;50.110;8.750;2023-11-19T06:10:45;4.20;;;3.28;;
82727;SDS011;72459;50.110;8.750;2023-11-19T06:13:15;4.93;;;3.10;;
82727;SDS011;72459;50.110;8.750;2023-11-19T06:15:43;5.03;;;3.63;;
82727;SDS011;72459;50.110;8.750;2023-11-19T06:18:09;4.53;;;3.55;;
82727;SDS011;72459;50.110;8.750;2023-11-19T06:20:35;4.53;;;3.53;;
82727;SDS011;72459;50.110;8.750;2023-11-19T06:23:00;4.25;;;3.20;;
82727;SDS011;72459;50.110;8.750;2023-11-19T06:25:26;3.95;;;3.50;;
82727;SDS011;72459;50.110;8.750;2023-11-19T06:27:51;3.83;;;3.20;;
82727;SDS011;72459;50.110;8.750;2023-11-19T06:30:17;4.35;;;3.25;;
82727;SDS011;72459;50.110;8.750;2023-11-19T06:32:45;4.32;;;2.88;;
82727;SDS011;72459;50.110;8.750;2023-11-19T06:35:11;5.57;;;4.20;;
82727;SDS011;72459;50.110;8.750;2023-11-19T06:37:39;4.18;;;3.20;;
82727;SDS011;72459;50.110;8.750;2023-11-19T06:40:06;4.15;;;2.70;;
82727;SDS011;72459;50.110;8.750;2023-11-19T06:42:32;3.97;;;2.83;;
82727;SDS011;72459;50.110;8.750;2023-11-19T06:45:01;4.45;;;2.70;;
82727;SDS011;72459;50.110;8.750;2023-11-19T06:47:27;3.60;;;2.85;;
82727;SDS011;72459;50.110;8.750;2023-11-19T06:49:53;4.18;;;3.22;;
82727;SDS011;72459;50.110;8.750;2023-11-19T06:52:19;3.55;;;2.92;;
82727;SDS011;72459;50.110;8.750;2023-11-19T06:54:44;3.97;;;3.05;;
82727;SDS011;72459;50.110;8.750;2023-11-19T06:57:13;3.50;;;3.10;;
82727;SDS011;72459;50.110;8.750;2023-11-19T06:59:42;5.75;;;3.42;;
82727;SDS011;72459;50.110;8.750;2023-11-19T07:02:07;3.80;;;3.03;;
82727;SDS011;72459;50.110;8.750;2023-11-19T07:04:32;4.20;;;2.97;;
82727;SDS011;72459;50.110;8.750;2023-11-19T07:06:58;4.22;;;2.90;;
82727;SDS011;72459;50.110;8.750;2023-11-19T07:09:24;3.92;;;2.63;;
82727;SDS011;72459;50.110;8.750;2023-11-19T07:11:52;3.13;;;2.53;;
82727;SDS011;72459;50.110;8.750;2023-11-19T07:14:18;5.03;;;3.33;;
82727;SDS011;72459;50.110;8.750;2023-11-19T07:16:45;3.25;;;2.63;;
82727;SDS011;72459;50.110;8.750;2023-11-19T07:19:15;4.00;;;2.60;;
82727;SDS011;72459;50.110;8.750;2023-11-19T07:21:41;3.78;;;2.90;;
82727;SDS011;72459;50.110;8.750;2023-11-19T07:24:09;3.08;;;2.58;;
82727;SDS011;72459;50.110;8.750;2023-11-19T07:26:39;3.60;;;2.58;;
82727;SDS011;72459;50.110;8.750;2023-11-19T07:29:07;4.72;;;3.17;;
82727;SDS011;72459;50.110;8.750;2023-11-19T07:31:33;4.38;;;2.80;;
82727;SDS011;72459;50.110;8.750;2023-11-19T07:33:58;5.20;;;2.90;;
82727;SDS011;72459;50.110;8.750;2023-11-19T07:36:23;2.85;;;2.55;;
82727;SDS011;72459;50.110;8.750;2023-11-19T07:38:49;4.88;;;2.60;;
82727;SDS011;72459;50.110;8.750;2023-11-19T07:41:15;3.17;;;2.47;;
82727;SDS011;72459;50.110;8.750;2023-11-19T07:43:43;3.10;;;2.42;;
82727;SDS011;72459;50.110;8.750;2023-11-19T07:46:12;2.78;;;2.42;;
82727;SDS011;72459;50.110;8.750;2023-11-19T07:48:39;4.05;;;2.35;;
82727;SDS011;72459;50.110;8.750;2023-11-19T07:51:05;3.75;;;2.80;;
82727;SDS011;72459;50.110;8.750;2023-11-19T07:53:31;4.40;;;2.30;;
82727;SDS011;72459;50.110;8.750;2023-11-19T07:55:57;5.57;;;2.58;;
82727;SDS011;72459;50.110;8.750;2023-11-19T07:58:24;4.53;;;2.33;;
82727;SDS011;72459;50.110;8.750;2023-11-19T08:00:50;3.38;;;2.50;;
82727;SDS011;72459;50.110;8.750;2023-11-19T08:03:17;3.67;;;2.40;;
82727;SDS011;72459;50.110;8.750;2023-11-19T08:05:42;2.58;;;1.98;;
82727;SDS011;72459;50.110;8.750;2023-11-19T08:08:07;2.53;;;1.98;;
82727;SDS011;72459;50.110;8.750;2023-11-19T08:10:33;2.47;;;2.13;;
82727;SDS011;72459;50.110;8.750;2023-11-19T08:12:58;2.55;;;2.25;;
82727;SDS011;72459;50.110;8.750;2023-11-19T08:15:24;5.20;;;2.77;;
82727;SDS011;72459;50.110;8.750;2023-11-19T08:17:49;3.08;;;2.30;;
82727;SDS011;72459;50.110;8.750;2023-11-19T08:20:14;3.05;;;2.45;;
82727;SDS011;72459;50.110;8.750;2023-11-19T08:22:40;2.83;;;2.43;;
82727;SDS011;72459;50.110;8.750;2023-11-19T08:25:05;3.97;;;2.22;;
82727;SDS011;72459;50.110;8.750;2023-11-19T08:27:31;3.67;;;3.10;;
82727;SDS011;72459;50.110;8.750;2023-11-19T08:29:57;3.90;;;2.65;;
82727;SDS011;72459;50.110;8.750;2023-11-19T08:32:25;3.55;;;2.60;;
82727;SDS011;72459;50.110;8.750;2023-11-19T08:34:51;2.25;;;2.00;;
82727;SDS011;72459;50.110;8.750;2023-11-19T08:37:17;3.25;;;2.00;;
82727;SDS011;72459;50.110;8.750;2023-11-19T08:39:48;5.40;;;2.22;;
82727;SDS011;72459;50.110;8.750;2023-11-19T08:42:14;3.42;;;2.38;;
82727;SDS011;72459;50.110;8.750;2023-11-19T08:44:39;3.65;;;2.45;;
82727;SDS011;72459;50.110;8.750;2023-11-19T08:47:08;2.58;;;2.22;;
82727;SDS011;72459;50.110;8.750;2023-11-19T08:49:34;4.05;;;2.28;;
82727;SDS011;72459;50.110;8.750;2023-11-19T08:51:59;4.20;;;2.67;;
82727;SDS011;72459;50.110;8.750;2023-11-19T08:54:25;4.75;;;2.47;;
82727;SDS011;72459;50.110;8.750;2023-11-19T08:56:50;5.03;;;2.90;;
82727;SDS011;72459;50.110;8.750;2023-11-19T08:59:15;3.43;;;2.80;;
82727;SDS011;72459;50.110;8.750;2023-11-19T09:01:41;3.00;;;2.40;;
82727;SDS011;72459;50.110;8.750;2023-11-19T09:04:07;3.05;;;2.22;;
82727;SDS011;72459;50.110;8.750;2023-11-19T09:06:32;4.68;;;2.35;;
82727;SDS011;72459;50.110;8.750;2023-11-19T09:08:58;4.82;;;2.42;;
82727;SDS011;72459;50.110;8.750;2023-11-19T09:11:27;6.07;;;2.85;;
82727;SDS011;72459;50.110;8.750;2023-11-19T09:13:53;3.65;;;2.55;;
82727;SDS011;72459;50.110;8.750;2023-11-19T09:16:18;3.77;;;2.50;;
82727;SDS011;72459;50.110;8.750;2023-11-19T09:18:44;5.70;;;2.60;;
82727;SDS011;72459;50.110;8.750;2023-11-19T09:21:12;3.80;;;2.67;;
82727;SDS011;72459;50.110;8.750;2023-11-19T09:23:38;3.78;;;2.60;;
82727;SDS011;72459;50.110;8.750;2023-11-19T09:26:08;3.40;;;1.92;;
82727;SDS011;72459;50.110;8.750;2023-11-19T09:28:35;3.78;;;2.47;;
82727;SDS011;72459;50.110;8.750;2023-11-19T09:31:00;3.55;;;2.45;;
82727;SDS011;72459;50.110;8.750;2023-11-19T09:33:29;3.97;;;2.40;;
82727;SDS011;72459;50.110;8.750;2023-11-19T09:35:54;2.90;;;2.20;;
82727;SDS011;72459;50.110;8.750;2023-11-19T09:38:20;4.40;;;2.22;;
82727;SDS011;72459;50.110;8.750;2023-11-19T09:40:46;3.50;;;1.80;;
82727;SDS011;72459;50.110;8.750;2023-11-19T09:43:12;3.58;;;2.10;;
82727;SDS011;72459;50.110;8.750;2023-11-19T09:45:49;4.30;;;2.05;;
82727;SDS011;72459;50.110;8.750;2023-11-19T09:48:18;2.90;;;2.05;;
82727;SDS011;72459;50.110;8.750;2023-11-19T09:50:47;2.75;;;1.83;;
82727;SDS011;72459;50.110;8.750;2023-11-19T09:53:13;3.33;;;1.70;;
82727;SDS011;72459;50.110;8.750;2023-11-19T09:55:40;4.00;;;1.88;;
82727;SDS011;72459;50.110;8.750;2023-11-19T09:58:06;7.25;;;1.70;;
82727;SDS011;72459;50.110;8.750;2023-11-19T10:00:32;4.10;;;1.70;;
82727;SDS011;72459;50.110;8.750;2023-11-19T10:02:58;2.67;;;1.70;;
82727;SDS011;72459;50.110;8.750;2023-11-19T10:05:24;5.63;;;1.83;;
82727;SDS011;72459;50.110;8.750;2023-11-19T10:07:51;2.50;;;1.40;;
82727;SDS011;72459;50.110;8.750;2023-11-19T10:10:16;6.43;;;2.08;;
82727;SDS011;72459;50.110;8.750;2023-11-19T10:12:47;3.33;;;1.10;;
82727;SDS011;72459;50.110;8.750;2023-11-19T10:15:23;2.88;;;1.33;;
82727;SDS011;72459;50.110;8.750;2023-11-19T10:17:50;2.15;;;1.15;;
82727;SDS011;72459;50.110;8.750;2023-11-19T10:20:16;4.18;;;1.40;;
82727;SDS011;72459;50.110;8.750;2023-11-19T10:22:42;5.25;;;1.23;;
82727;SDS011;72459;50.110;8.750;2023-11-19T10:25:26;2.33;;;1.10;;
82727;SDS011;72459;50.110;8.750;2023-11-19T10:27:53;4.00;;;1.40;;
82727;SDS011;72459;50.110;8.750;2023-11-19T10:30:23;4.95;;;1.10;;
82727;SDS011;72459;50.110;8.750;2023-11-19T10:33:07;4.32;;;1.40;;
82727;SDS011;72459;50.110;8.750;2023-11-19T10:35:52;4.35;;;1.20;;
82727;SDS011;72459;50.110;8.750;2023-11-19T10:38:25;3.97;;;1.20;;
82727;SDS011;72459;50.110;8.750;2023-11-19T10:40:51;3.97;;;1.20;;
82727;SDS011;72459;50.110;8.750;2023-11-19T10:43:17;4.93;;;1.20;;
82727;SDS011;72459;50.110;8.750;2023-11-19T10:45:44;7.82;;;1.40;;
82727;SDS011;72459;50.110;8.750;2023-11-19T10:48:09;6.53;;;1.45;;
82727;SDS011;72459;50.110;8.750;2023-11-19T10:50:37;7.40;;;1.35;;
82727;SDS011;72459;50.110;8.750;2023-11-19T10:53:04;2.28;;;0.88;;
82727;SDS011;72459;50.110;8.750;2023-11-19T10:55:32;4.15;;;1.20;;
82727;SDS011;72459;50.110;8.750;2023-11-19T10:58:00;4.35;;;1.08;;
82727;SDS011;72459;50.110;8.750;2023-11-19T11:00:51;7.75;;;1.63;;
82727;SDS011;72459;50.110;8.750;2023-11-19T11:03:19;4.95;;;0.98;;
82727;SDS011;72459;50.110;8.750;2023-11-19T11:05:52;6.13;;;0.98;;
82727;SDS011;72459;50.110;8.750;2023-11-19T11:08:20;4.13;;;1.13;;
82727;SDS011;72459;50.110;8.750;2023-11-19T11:10:55;4.88;;;1.25;;
82727;SDS011;72459;50.110;8.750;2023-11-19T11:13:22;3.20;;;0.95;;
82727;SDS011;72459;50.110;8.750;2023-11-19T11:15:51;9.43;;;1.27;;
82727;SDS011;72459;50.110;8.750;2023-11-19T11:18:19;7.50;;;1.20;;
82727;SDS011;72459;50.110;8.750;2023-11-19T11:20:46;4.88;;;1.20;;
82727;SDS011;72459;50.110;8.750;2023-11-19T11:28:58;3.95;;;0.82;;
82727;SDS011;72459;50.110;8.750;2023-11-19T11:39:44;9.18;;;1.50;;
82727;SDS011;72459;50.110;8.750;2023-11-19T11:50:08;5.63;;;1.20;;
82727;SDS011;72459;50.110;8.750;2023-11-19T11:53:12;6.47;;;1.27;;
82727;SDS011;72459;50.110;8.750;2023-11-19T11:57:54;7.38;;;1.35;;
82727;SDS011;72459;50.110;8.750;2023-11-19T12:00:29;9.18;;;2.60;;
82727;SDS011;72459;50.110;8.750;2023-11-19T12:02:56;5.05;;;0.70;;
82727;SDS011;72459;50.110;8.750;2023-11-19T12:05:26;5.80;;;1.30;;
82727;SDS011;72459;50.110;8.750;2023-11-19T12:07:55;6.50;;;1.10;;
82727;SDS011;72459;50.110;8.750;2023-11-19T12:10:25;10.32;;;1.38;;
82727;SDS011;72459;50.110;8.750;2023-11-19T12:12:58;7.00;;;1.30;;
82727;SDS011;72459;50.110;8.750;2023-11-19T12:15:24;7.30;;;1.20;;
82727;SDS011;72459;50.110;8.750;2023-11-19T12:20:17;9.35;;;1.40;;
82727;SDS011;72459;50.110;8.750;2023-11-19T12:22:44;8.63;;;1.20;;
82727;SDS011;72459;50.110;8.750;2023-11-19T12:25:14;6.05;;;1.05;;
82727;SDS011;72459;50.110;8.750;2023-11-19T12:27:42;3.55;;;1.02;;
82727;SDS011;72459;50.110;8.750;2023-11-19T12:30:09;7.63;;;1.27;;
82727;SDS011;72459;50.110;8.750;2023-11-19T12:32:45;5.85;;;1.05;;
82727;SDS011;72459;50.110;8.750;2023-11-19T12:35:11;6.35;;;1.02;;
82727;SDS011;72459;50.110;8.750;2023-11-19T12:40:22;6.78;;;1.38;;
82727;SDS011;72459;50.110;8.750;2023-11-19T12:42:48;4.28;;;1.00;;
82727;SDS011;72459;50.110;8.750;2023-11-19T12:45:14;4.80;;;1.45;;
82727;SDS011;72459;50.110;8.750;2023-11-19T12:47:41;4.93;;;1.58;;
82727;SDS011;72459;50.110;8.750;2023-11-19T12:50:07;8.00;;;1.40;;
82727;SDS011;72459;50.110;8.750;2023-11-19T12:52:34;6.28;;;2.53;;
82727;SDS011;72459;50.110;8.750;2023-11-19T12:55:01;5.53;;;1.15;;
82727;SDS011;72459;50.110;8.750;2023-11-19T12:57:40;8.20;;;1.65;;
82727;SDS011;72459;50.110;8.750;2023-11-19T13:00:17;5.60;;;1.00;;
82727;SDS011;72459;50.110;8.750;2023-11-19T13:02:53;6.80;;;1.00;;
82727;SDS011;72459;50.110;8.750;2023-11-19T13:05:40;6.18;;;1.00;;
82727;SDS011;72459;50.110;8.750;2023-11-19T13:08:06;7.68;;;0.85;;
82727;SDS011;72459;50.110;8.750;2023-11-19T13:10:34;5.55;;;0.90;;
82727;SDS011;72459;50.110;8.750;2023-11-19T13:13:15;3.90;;;1.10;;
82727;SDS011;72459;50.110;8.750;2023-11-19T13:15:40;5.28;;;0.80;;
82727;SDS011;72459;50.110;8.750;2023-11-19T13:18:06;5.20;;;1.10;;
82727;SDS011;72459;50.110;8.750;2023-11-19T13:20:31;3.63;;;0.73;;
82727;SDS011;72459;50.110;8.750;2023-11-19T13:23:01;10.10;;;1.42;;
82727;SDS011;72459;50.110;8.750;2023-11-19T13:25:28;4.88;;;1.20;;
82727;SDS011;72459;50.110;8.750;2023-11-19T13:27:56;7.10;;;1.27;;
82727;SDS011;72459;50.110;8.750;2023-11-19T13:30:22;4.95;;;0.98;;
82727;SDS011;72459;50.110;8.750;2023-11-19T13:32:49;6.13;;;1.02;;
82727;SDS011;72459;50.110;8.750;2023-11-19T13:35:15;2.85;;;0.75;;
82727;SDS011;72459;50.110;8.750;2023-11-19T13:37:42;4.50;;;0.80;;
82727;SDS011;72459;50.110;8.750;2023-11-19T13:40:07;5.40;;;0.75;;
82727;SDS011;72459;50.110;8.750;2023-11-19T13:42:35;5.60;;;1.25;;
82727;SDS011;72459;50.110;8.750;2023-11-19T13:45:02;8.90;;;1.13;;
82727;SDS011;72459;50.110;8.750;2023-11-19T13:47:28;5.38;;;1.40;;
82727;SDS011;72459;50.110;8.750;2023-11-19T13:49:54;5.70;;;1.65;;
82727;SDS011;72459;50.110;8.750;2023-11-19T13:52:19;6.65;;;1.02;;
82727;SDS011;72459;50.110;8.750;2023-11-19T13:54:44;6.30;;;1.02;;
82727;SDS011;72459;50.110;8.750;2023-11-19T13:57:10;7.72;;;1.13;;
82727;SDS011;72459;50.110;8.750;2023-11-19T13:59:39;4.78;;;0.98;;
82727;SDS011;72459;50.110;8.750;2023-11-19T14:02:05;5.65;;;0.90;;
82727;SDS011;72459;50.110;8.750;2023-11-19T14:04:32;4.60;;;0.98;;
82727;SDS011;72459;50.110;8.750;2023-11-19T14:06:58;5.57;;;0.75;;
82727;SDS011;72459;50.110;8.750;2023-11-19T14:09:23;5.63;;;1.07;;
82727;SDS011;72459;50.110;8.750;2023-11-19T14:11:49;5.63;;;0.67;;
82727;SDS011;72459;50.110;8.750;2023-11-19T14:14:16;4.32;;;0.88;;
82727;SDS011;72459;50.110;8.750;2023-11-19T14:16:41;3.55;;;0.80;;
82727;SDS011;72459;50.110;8.750;2023-11-19T14:19:07;6.40;;;1.03;;
82727;SDS011;72459;50.110;8.750;2023-11-19T14:21:33;6.50;;;1.02;;
82727;SDS011;72459;50.110;8.750;2023-11-19T14:23:58;6.72;;;1.02;;
82727;SDS011;72459;50.110;8.750;2023-11-19T14:26:23;6.68;;;0.95;;
82727;SDS011;72459;50.110;8.750;2023-11-19T14:28:49;5.80;;;0.95;;
82727;SDS011;72459;50.110;8.750;2023-11-19T14:31:14;6.97;;;1.20;;
82727;SDS011;72459;50.110;8.750;2023-11-19T14:33:41;5.00;;;0.88;;
82727;SDS011;72459;50.110;8.750;2023-11-19T14:36:07;8.43;;;1.10;;
82727;SDS011;72459;50.110;8.750;2023-11-19T14:38:33;3.92;;;0.93;;
82727;SDS011;72459;50.110;8.750;2023-11-19T14:40:58;4.43;;;1.00;;
82727;SDS011;72459;50.110;8.750;2023-11-19T14:43:24;6.85;;;1.17;;
82727;SDS011;72459;50.110;8.750;2023-11-19T14:45:50;9.05;;;1.75;;
82727;SDS011;72459;50.110;8.750;2023-11-19T14:48:16;5.53;;;1.10;;
82727;SDS011;72459;50.110;8.750;2023-11-19T14:50:45;5.35;;;0.90;;
82727;SDS011;72459;50.110;8.750;2023-11-19T14:53:10;8.40;;;1.05;;
82727;SDS011;72459;50.110;8.750;2023-11-19T14:55:35;6.78;;;1.10;;
82727;SDS011;72459;50.110;8.750;2023-11-19T14:58:01;3.53;;;0.85;;
82727;SDS011;72459;50.110;8.750;2023-11-19T15:00:27;4.82;;;1.20;;
82727;SDS011;72459;50.110;8.750;2023-11-19T15:02:52;6.72;;;1.08;;
82727;SDS011;72459;50.110;8.750;2023-11-19T15:05:17;6.33;;;1.23;;
82727;SDS011;72459;50.110;8.750;2023-11-19T15:07:43;6.57;;;0.90;;
82727;SDS011;72459;50.110;8.750;2023-11-19T15:10:09;6.72;;;1.40;;
82727;SDS011;72459;50.110;8.750;2023-11-19T15:12:39;8.52;;;2.33;;
82727;SDS011;72459;50.110;8.750;2023-11-19T15:15:07;8.32;;;1.20;;
82727;SDS011;72459;50.110;8.750;2023-11-19T15:17:34;5.28;;;1.00;;
82727;SDS011;72459;50.110;8.750;2023-11-19T15:20:04;6.03;;;1.90;;